sensor_id;sensor_type;location;lat;lon;timestamp;pressure;altitude;pressure_sealevel;temperature;humidity
54822;BME280;41299;43.546;16.426;2022-11-13T00:01:47;102538.84;;;13.77;62.54
54822;BME280;41299;43.546;16.426;2022-11-13T00:04:12;102542.22;;;13.73;63.44
54822;BME280;41299;43.546;16.426;2022-11-13T00:06:37;102533.44;;;13.67;63.76
54822;BME280;41299;43.546;16.426;2022-11-13T00:09:05;102534.25;;;13.64;64.89
54822;BME280;41299;43.546;16.426;2022-11-13T00:11:30;102515.94;;;13.56;66.78
54822;BME280;41299;43.546;16.426;2022-11-13T00:13:58;102526.25;;;13.55;65.73
54822;BME280;41299;43.546;16.426;2022-11-13T00:16:23;102525.41;;;13.54;65.28
54822;BME280;41299;43.546;16.426;2022-11-13T00:18:49;102530.59;;;13.54;66.57
54822;BME280;41299;43.546;16.426;2022-11-13T00:21:18;102531.25;;;13.47;66.94
54822;BME280;41299;43.546;16.426;2022-11-13T00:23:43;102544.13;;;13.44;67.50
54822;BME280;41299;43.546;16.426;2022-11-13T00:26:13;102543.88;;;13.31;70.84
54822;BME280;41299;43.546;16.426;2022-11-13T00:28:39;102537.00;;;13.33;69.04
54822;BME280;41299;43.546;16.426;2022-11-13T00:31:05;102531.75;;;13.32;68.83
54822;BME280;41299;43.546;16.426;2022-11-13T00:33:31;102537.84;;;13.32;68.91
54822;BME280;41299;43.546;16.426;2022-11-13T00:36:03;102539.31;;;13.21;72.10
54822;BME280;41299;43.546;16.426;2022-11-13T00:38:29;102538.16;;;13.09;72.90
54822;BME280;41299;43.546;16.426;2022-11-13T00:40:54;102544.25;;;13.10;75.07
54822;BME280;41299;43.546;16.426;2022-11-13T00:43:27;102538.97;;;13.07;73.76
54822;BME280;41299;43.546;16.426;2022-11-13T00:45:53;102530.63;;;13.19;70.03
54822;BME280;41299;43.546;16.426;2022-11-13T00:48:18;102515.22;;;13.25;69.10
54822;BME280;41299;43.546;16.426;2022-11-13T00:50:43;102525.44;;;13.19;70.92
54822;BME280;41299;43.546;16.426;2022-11-13T00:53:09;102525.91;;;13.02;74.17
54822;BME280;41299;43.546;16.426;2022-11-13T00:55:34;102527.56;;;13.00;73.49
54822;BME280;41299;43.546;16.426;2022-11-13T00:57:59;102513.97;;;13.07;71.23
54822;BME280;41299;43.546;16.426;2022-11-13T01:00:25;102519.84;;;13.02;74.69
54822;BME280;41299;43.546;16.426;2022-11-13T01:02:50;102514.53;;;12.95;74.00
54822;BME280;41299;43.546;16.426;2022-11-13T01:05:15;102511.88;;;12.94;74.06
54822;BME280;41299;43.546;16.426;2022-11-13T01:07:41;102505.81;;;12.92;75.68
54822;BME280;41299;43.546;16.426;2022-11-13T01:10:06;102499.72;;;12.90;75.77
54822;BME280;41299;43.546;16.426;2022-11-13T01:12:32;102501.34;;;12.84;77.18
54822;BME280;41299;43.546;16.426;2022-11-13T01:14:57;102491.63;;;12.77;76.91
54822;BME280;41299;43.546;16.426;2022-11-13T01:17:23;102498.66;;;12.81;75.43
54822;BME280;41299;43.546;16.426;2022-11-13T01:19:48;102494.22;;;12.77;78.52
54822;BME280;41299;43.546;16.426;2022-11-13T01:22:13;102487.16;;;12.70;80.08
54822;BME280;41299;43.546;16.426;2022-11-13T01:24:38;102475.97;;;12.71;78.40
54822;BME280;41299;43.546;16.426;2022-11-13T01:27:04;102466.16;;;12.57;79.78
54822;BME280;41299;43.546;16.426;2022-11-13T01:29:29;102455.78;;;12.57;80.28
54822;BME280;41299;43.546;16.426;2022-11-13T01:31:54;102454.06;;;12.58;80.02
54822;BME280;41299;43.546;16.426;2022-11-13T01:34:20;102445.34;;;12.54;80.37
54822;BME280;41299;43.546;16.426;2022-11-13T01:36:45;102437.88;;;12.65;77.83
54822;BME280;41299;43.546;16.426;2022-11-13T01:39:11;102431.91;;;12.69;77.07
54822;BME280;41299;43.546;16.426;2022-11-13T01:41:36;102427.38;;;12.59;80.26
54822;BME280;41299;43.546;16.426;2022-11-13T01:44:02;102429.81;;;12.54;82.00
54822;BME280;41299;43.546;16.426;2022-11-13T01:46:32;102426.38;;;12.54;78.84
54822;BME280;41299;43.546;16.426;2022-11-13T01:51:27;102423.78;;;12.54;80.08
54822;BME280;41299;43.546;16.426;2022-11-13T01:53:53;102411.66;;;12.51;79.18
54822;BME280;41299;43.546;16.426;2022-11-13T01:56:19;102414.28;;;12.54;79.00
54822;BME280;41299;43.546;16.426;2022-11-13T01:58:47;102410.94;;;12.58;77.54
54822;BME280;41299;43.546;16.426;2022-11-13T02:01:15;102404.19;;;12.64;76.48
54822;BME280;41299;43.546;16.426;2022-11-13T02:03:40;102396.47;;;12.65;75.11
54822;BME280;41299;43.546;16.426;2022-11-13T02:06:05;102403.28;;;12.63;75.85
54822;BME280;41299;43.546;16.426;2022-11-13T02:08:31;102404.25;;;12.67;72.14
54822;BME280;41299;43.546;16.426;2022-11-13T02:10:56;102400.88;;;12.71;72.42
54822;BME280;41299;43.546;16.426;2022-11-13T02:13:22;102397.63;;;12.78;68.99
54822;BME280;41299;43.546;16.426;2022-11-13T02:15:48;102404.69;;;12.85;66.59
54822;BME280;41299;43.546;16.426;2022-11-13T02:18:14;102396.00;;;12.83;66.45
54822;BME280;41299;43.546;16.426;2022-11-13T02:20:53;102397.69;;;12.81;68.51
54822;BME280;41299;43.546;16.426;2022-11-13T02:26:25;102384.91;;;12.89;64.93
54822;BME280;41299;43.546;16.426;2022-11-13T02:28:51;102386.66;;;12.90;65.45
54822;BME280;41299;43.546;16.426;2022-11-13T02:31:17;102385.94;;;12.96;62.21
54822;BME280;41299;43.546;16.426;2022-11-13T02:33:42;102384.50;;;13.10;59.58
54822;BME280;41299;43.546;16.426;2022-11-13T02:36:07;102379.53;;;13.20;58.34
54822;BME280;41299;43.546;16.426;2022-11-13T02:38:34;102381.28;;;13.21;57.38
54822;BME280;41299;43.546;16.426;2022-11-13T02:41:00;102391.63;;;13.21;58.06
54822;BME280;41299;43.546;16.426;2022-11-13T02:43:25;102381.22;;;13.19;58.48
54822;BME280;41299;43.546;16.426;2022-11-13T02:45:50;102392.53;;;13.21;57.41
54822;BME280;41299;43.546;16.426;2022-11-13T02:48:16;102387.19;;;13.15;59.73
54822;BME280;41299;43.546;16.426;2022-11-13T02:50:41;102394.00;;;13.10;59.99
54822;BME280;41299;43.546;16.426;2022-11-13T02:53:06;102396.50;;;13.07;58.04
54822;BME280;41299;43.546;16.426;2022-11-13T02:55:32;102397.59;;;13.17;55.59
54822;BME280;41299;43.546;16.426;2022-11-13T02:57:57;102402.72;;;13.15;56.28
54822;BME280;41299;43.546;16.426;2022-11-13T03:00:22;102400.00;;;13.09;59.50
54822;BME280;41299;43.546;16.426;2022-11-13T03:02:48;102398.22;;;13.06;57.57
54822;BME280;41299;43.546;16.426;2022-11-13T03:05:13;102403.34;;;13.03;59.48
54822;BME280;41299;43.546;16.426;2022-11-13T03:07:38;102398.16;;;13.03;58.24
54822;BME280;41299;43.546;16.426;2022-11-13T03:10:04;102391.25;;;13.02;57.64
54822;BME280;41299;43.546;16.426;2022-11-13T03:12:29;102395.50;;;13.00;59.99
54822;BME280;41299;43.546;16.426;2022-11-13T03:14:54;102389.50;;;13.01;58.85
54822;BME280;41299;43.546;16.426;2022-11-13T03:17:20;102384.47;;;13.09;57.43
54822;BME280;41299;43.546;16.426;2022-11-13T03:19:45;102383.69;;;13.13;56.38
54822;BME280;41299;43.546;16.426;2022-11-13T03:22:10;102381.00;;;13.08;58.10
54822;BME280;41299;43.546;16.426;2022-11-13T03:24:36;102379.41;;;13.14;56.72
54822;BME280;41299;43.546;16.426;2022-11-13T03:27:01;102378.59;;;13.18;56.61
54822;BME280;41299;43.546;16.426;2022-11-13T03:29:26;102376.00;;;13.18;55.80
54822;BME280;41299;43.546;16.426;2022-11-13T03:31:51;102381.41;;;13.27;54.47
54822;BME280;41299;43.546;16.426;2022-11-13T03:34:17;102377.91;;;13.25;55.94
54822;BME280;41299;43.546;16.426;2022-11-13T03:36:42;102372.84;;;13.31;54.82
54822;BME280;41299;43.546;16.426;2022-11-13T03:39:08;102372.09;;;13.37;54.45
54822;BME280;41299;43.546;16.426;2022-11-13T03:41:33;102360.91;;;13.39;53.63
54822;BME280;41299;43.546;16.426;2022-11-13T03:43:58;102365.25;;;13.39;54.24
54822;BME280;41299;43.546;16.426;2022-11-13T03:46:23;102357.47;;;13.41;54.30
54822;BME280;41299;43.546;16.426;2022-11-13T03:48:49;102348.00;;;13.41;54.49
54822;BME280;41299;43.546;16.426;2022-11-13T03:51:14;102354.88;;;13.41;55.81
54822;BME280;41299;43.546;16.426;2022-11-13T03:53:39;102350.38;;;13.32;57.15
54822;BME280;41299;43.546;16.426;2022-11-13T03:56:05;102351.19;;;13.29;57.33
54822;BME280;41299;43.546;16.426;2022-11-13T03:58:30;102348.56;;;13.26;57.47
54822;BME280;41299;43.546;16.426;2022-11-13T04:00:55;102353.75;;;13.26;58.92
54822;BME280;41299;43.546;16.426;2022-11-13T04:03:21;102343.22;;;13.18;59.88
54822;BME280;41299;43.546;16.426;2022-11-13T04:05:47;102345.53;;;13.04;62.62
54822;BME280;41299;43.546;16.426;2022-11-13T04:08:13;102339.38;;;12.99;62.32
54822;BME280;41299;43.546;16.426;2022-11-13T04:10:38;102333.16;;;12.91;62.91
54822;BME280;41299;43.546;16.426;2022-11-13T04:13:03;102339.25;;;12.93;63.26
54822;BME280;41299;43.546;16.426;2022-11-13T04:15:29;102331.50;;;12.94;62.86
54822;BME280;41299;43.546;16.426;2022-11-13T04:17:54;102352.28;;;12.96;63.15
54822;BME280;41299;43.546;16.426;2022-11-13T04:20:19;102347.00;;;12.93;63.94
54822;BME280;41299;43.546;16.426;2022-11-13T04:22:44;102353.75;;;12.86;65.35
54822;BME280;41299;43.546;16.426;2022-11-13T04:25:10;102350.22;;;12.82;65.88
54822;BME280;41299;43.546;16.426;2022-11-13T04:27:35;102341.75;;;12.88;64.61
54822;BME280;41299;43.546;16.426;2022-11-13T04:30:01;102334.03;;;12.91;62.63
54822;BME280;41299;43.546;16.426;2022-11-13T04:32:26;102345.31;;;12.95;62.96
54822;BME280;41299;43.546;16.426;2022-11-13T04:34:51;102343.53;;;12.92;63.93
54822;BME280;41299;43.546;16.426;2022-11-13T04:37:16;102346.25;;;12.97;62.31
54822;BME280;41299;43.546;16.426;2022-11-13T04:39:42;102344.50;;;12.97;62.76
54822;BME280;41299;43.546;16.426;2022-11-13T04:42:07;102348.88;;;13.00;62.94
54822;BME280;41299;43.546;16.426;2022-11-13T04:44:51;102352.28;;;12.97;63.31
54822;BME280;41299;43.546;16.426;2022-11-13T04:47:17;102346.28;;;12.98;63.11
54822;BME280;41299;43.546;16.426;2022-11-13T04:49:42;102342.00;;;13.01;62.91
54822;BME280;41299;43.546;16.426;2022-11-13T04:52:07;102348.88;;;13.00;62.88
54822;BME280;41299;43.546;16.426;2022-11-13T04:54:32;102346.16;;;12.94;63.62
54822;BME280;41299;43.546;16.426;2022-11-13T04:56:58;102341.88;;;12.94;62.73
54822;BME280;41299;43.546;16.426;2022-11-13T04:59:23;102345.31;;;12.95;63.02
54822;BME280;41299;43.546;16.426;2022-11-13T05:01:48;102330.75;;;12.98;62.31
54822;BME280;41299;43.546;16.426;2022-11-13T05:04:14;102335.19;;;13.06;61.64
54822;BME280;41299;43.546;16.426;2022-11-13T05:06:39;102330.84;;;13.03;61.45
54822;BME280;41299;43.546;16.426;2022-11-13T05:09:04;102329.91;;;12.99;62.01
54822;BME280;41299;43.546;16.426;2022-11-13T05:11:30;102341.91;;;12.97;63.44
54822;BME280;41299;43.546;16.426;2022-11-13T05:13:55;102338.44;;;12.95;63.71
54822;BME280;41299;43.546;16.426;2022-11-13T05:16:20;102344.59;;;13.01;62.63
54822;BME280;41299;43.546;16.426;2022-11-13T05:18:46;102338.63;;;13.05;62.14
54822;BME280;41299;43.546;16.426;2022-11-13T05:21:11;102342.09;;;13.05;62.79
54822;BME280;41299;43.546;16.426;2022-11-13T05:23:36;102340.34;;;13.04;62.06
54822;BME280;41299;43.546;16.426;2022-11-13T05:28:27;102342.00;;;13.01;62.92
54822;BME280;41299;43.546;16.426;2022-11-13T05:30:52;102352.34;;;13.01;62.87
54822;BME280;41299;43.546;16.426;2022-11-13T05:33:18;102340.34;;;13.04;62.19
54822;BME280;41299;43.546;16.426;2022-11-13T05:35:43;102343.06;;;13.10;61.95
54822;BME280;41299;43.546;16.426;2022-11-13T05:38:08;102340.50;;;13.12;62.03
54822;BME280;41299;43.546;16.426;2022-11-13T05:40:33;102337.84;;;13.09;62.34
54822;BME280;41299;43.546;16.426;2022-11-13T05:42:59;102346.47;;;13.08;62.86
54822;BME280;41299;43.546;16.426;2022-11-13T05:45:24;102326.63;;;13.08;62.58
54822;BME280;41299;43.546;16.426;2022-11-13T05:47:49;102349.16;;;13.12;62.33
54822;BME280;41299;43.546;16.426;2022-11-13T05:50:15;102363.00;;;13.15;63.10
54822;BME280;41299;43.546;16.426;2022-11-13T05:52:40;102365.47;;;13.08;63.19
54822;BME280;41299;43.546;16.426;2022-11-13T05:55:05;102355.16;;;13.11;63.36
54822;BME280;41299;43.546;16.426;2022-11-13T05:57:31;102349.03;;;13.08;65.30
54822;BME280;41299;43.546;16.426;2022-11-13T05:59:57;102356.00;;;13.10;64.50
54822;BME280;41299;43.546;16.426;2022-11-13T06:02:22;102362.94;;;13.10;64.10
54822;BME280;41299;43.546;16.426;2022-11-13T06:04:47;102372.47;;;13.14;66.86
54822;BME280;41299;43.546;16.426;2022-11-13T06:07:13;102357.03;;;13.17;64.81
54822;BME280;41299;43.546;16.426;2022-11-13T06:09:38;102366.63;;;13.21;63.45
54822;BME280;41299;43.546;16.426;2022-11-13T06:12:04;102368.34;;;13.22;63.14
54822;BME280;41299;43.546;16.426;2022-11-13T06:14:29;102370.03;;;13.20;63.88
54822;BME280;41299;43.546;16.426;2022-11-13T06:16:54;102362.16;;;13.16;63.25
54822;BME280;41299;43.546;16.426;2022-11-13T06:19:20;102367.44;;;13.19;62.97
54822;BME280;41299;43.546;16.426;2022-11-13T06:21:45;102371.00;;;13.24;62.05
54822;BME280;41299;43.546;16.426;2022-11-13T06:24:10;102354.59;;;13.26;63.16
54822;BME280;41299;43.546;16.426;2022-11-13T06:26:36;102366.66;;;13.24;64.00
54822;BME280;41299;43.546;16.426;2022-11-13T06:29:03;102364.00;;;13.20;66.49
54822;BME280;41299;43.546;16.426;2022-11-13T06:31:30;102363.91;;;13.17;67.72
54822;BME280;41299;43.546;16.426;2022-11-13T06:33:56;102367.34;;;13.16;69.59
54822;BME280;41299;43.546;16.426;2022-11-13T06:36:25;102366.31;;;13.09;76.42
54822;BME280;41299;43.546;16.426;2022-11-13T06:38:50;102372.28;;;13.03;76.51
54822;BME280;41299;43.546;16.426;2022-11-13T06:41:16;102371.41;;;13.04;74.84
54822;BME280;41299;43.546;16.426;2022-11-13T06:43:42;102367.34;;;13.16;71.47
54822;BME280;41299;43.546;16.426;2022-11-13T06:46:09;102369.16;;;13.20;70.21
54822;BME280;41299;43.546;16.426;2022-11-13T06:48:36;102375.31;;;13.25;70.56
54822;BME280;41299;43.546;16.426;2022-11-13T06:51:04;102372.06;;;13.35;67.01
54822;BME280;41299;43.546;16.426;2022-11-13T06:53:31;102367.94;;;13.45;65.17
54822;BME280;41299;43.546;16.426;2022-11-13T06:55:59;102364.69;;;13.54;63.07
54822;BME280;41299;43.546;16.426;2022-11-13T06:58:25;102364.88;;;13.65;62.45
54822;BME280;41299;43.546;16.426;2022-11-13T07:00:51;102375.38;;;13.71;61.70
54822;BME280;41299;43.546;16.426;2022-11-13T07:03:18;102376.31;;;13.75;63.91
54822;BME280;41299;43.546;16.426;2022-11-13T07:05:43;102375.53;;;13.79;61.67
54822;BME280;41299;43.546;16.426;2022-11-13T07:08:09;102378.97;;;13.78;63.88
54822;BME280;41299;43.546;16.426;2022-11-13T07:10:35;102387.63;;;13.80;67.18
54822;BME280;41299;43.546;16.426;2022-11-13T07:13:00;102381.56;;;13.78;71.20
54822;BME280;41299;43.546;16.426;2022-11-13T07:15:25;102383.41;;;13.85;67.14
54822;BME280;41299;43.546;16.426;2022-11-13T07:17:51;102381.06;;;13.99;62.54
54822;BME280;41299;43.546;16.426;2022-11-13T07:20:19;102381.25;;;14.09;60.41
54822;BME280;41299;43.546;16.426;2022-11-13T07:22:44;102377.00;;;14.14;63.04
54822;BME280;41299;43.546;16.426;2022-11-13T07:25:09;102380.47;;;14.13;67.58
54822;BME280;41299;43.546;16.426;2022-11-13T07:27:35;102381.31;;;14.13;68.46
54822;BME280;41299;43.546;16.426;2022-11-13T07:30:00;102376.19;;;14.16;63.30
54822;BME280;41299;43.546;16.426;2022-11-13T07:32:25;102375.38;;;14.19;63.76
54822;BME280;41299;43.546;16.426;2022-11-13T07:34:51;102378.13;;;14.30;61.86
54822;BME280;41299;43.546;16.426;2022-11-13T07:37:16;102376.41;;;14.30;63.87
54822;BME280;41299;43.546;16.426;2022-11-13T07:39:42;102381.72;;;14.37;63.85
54822;BME280;41299;43.546;16.426;2022-11-13T07:42:07;102378.31;;;14.42;61.52
54822;BME280;41299;43.546;16.426;2022-11-13T07:44:32;102379.25;;;14.48;65.17
54822;BME280;41299;43.546;16.426;2022-11-13T07:46:58;102381.97;;;14.54;62.64
54822;BME280;41299;43.546;16.426;2022-11-13T07:49:24;102368.19;;;14.58;60.05
54822;BME280;41299;43.546;16.426;2022-11-13T07:51:49;102370.88;;;14.64;63.48
54822;BME280;41299;43.546;16.426;2022-11-13T07:54:15;102360.53;;;14.69;61.25
54822;BME280;41299;43.546;16.426;2022-11-13T07:56:40;102351.06;;;14.72;59.71
54822;BME280;41299;43.546;16.426;2022-11-13T07:59:05;102356.38;;;14.77;77.87
54822;BME280;41299;43.546;16.426;2022-11-13T08:01:31;102351.94;;;14.73;75.45
54822;BME280;41299;43.546;16.426;2022-11-13T08:03:56;102353.78;;;14.77;70.58
54822;BME280;41299;43.546;16.426;2022-11-13T08:06:21;102353.81;;;14.79;73.59
54822;BME280;41299;43.546;16.426;2022-11-13T08:08:48;102343.50;;;14.86;70.27
54822;BME280;41299;43.546;16.426;2022-11-13T08:11:13;102342.78;;;14.98;66.07
54822;BME280;41299;43.546;16.426;2022-11-13T08:13:39;102346.44;;;15.11;65.79
54822;BME280;41299;43.546;16.426;2022-11-13T08:16:04;102351.69;;;15.18;64.06
54822;BME280;41299;43.546;16.426;2022-11-13T08:18:30;102350.88;;;15.23;66.82
54822;BME280;41299;43.546;16.426;2022-11-13T08:21:02;102346.66;;;15.30;67.13
54822;BME280;41299;43.546;16.426;2022-11-13T08:23:27;102343.25;;;15.36;65.23
54822;BME280;41299;43.546;16.426;2022-11-13T08:25:53;102347.63;;;15.42;69.00
54822;BME280;41299;43.546;16.426;2022-11-13T08:28:18;102345.94;;;15.45;66.75
54822;BME280;41299;43.546;16.426;2022-11-13T08:30:43;102343.34;;;15.45;67.91
54822;BME280;41299;43.546;16.426;2022-11-13T08:33:09;102353.78;;;15.48;66.20
54822;BME280;41299;43.546;16.426;2022-11-13T08:35:34;102343.44;;;15.55;65.46
54822;BME280;41299;43.546;16.426;2022-11-13T08:38:03;102340.03;;;15.59;70.07
54822;BME280;41299;43.546;16.426;2022-11-13T08:40:29;102346.16;;;15.65;65.34
54822;BME280;41299;43.546;16.426;2022-11-13T08:43:00;102349.69;;;15.72;64.46
54822;BME280;41299;43.546;16.426;2022-11-13T08:45:26;102348.00;;;15.76;67.46
54822;BME280;41299;43.546;16.426;2022-11-13T08:47:52;102348.09;;;15.85;65.08
54822;BME280;41299;43.546;16.426;2022-11-13T08:50:17;102344.63;;;15.89;64.62
54822;BME280;41299;43.546;16.426;2022-11-13T08:52:42;102350.78;;;15.95;60.83
54822;BME280;41299;43.546;16.426;2022-11-13T08:55:08;102342.13;;;15.97;62.82
54822;BME280;41299;43.546;16.426;2022-11-13T08:57:33;102340.44;;;16.01;63.91
54822;BME280;41299;43.546;16.426;2022-11-13T08:59:58;102340.44;;;16.02;63.65
54822;BME280;41299;43.546;16.426;2022-11-13T09:02:24;102338.78;;;16.09;64.79
54822;BME280;41299;43.546;16.426;2022-11-13T09:04:49;102337.91;;;16.10;69.56
54822;BME280;41299;43.546;16.426;2022-11-13T09:07:14;102345.78;;;16.18;68.63
54822;BME280;41299;43.546;16.426;2022-11-13T09:09:40;102343.25;;;16.26;67.80
54822;BME280;41299;43.546;16.426;2022-11-13T09:12:05;102338.06;;;16.30;72.28
54822;BME280;41299;43.546;16.426;2022-11-13T09:14:30;102337.25;;;16.35;68.32
54822;BME280;41299;43.546;16.426;2022-11-13T09:16:55;102337.28;;;16.41;71.21
54822;BME280;41299;43.546;16.426;2022-11-13T09:19:21;102340.72;;;16.38;71.37
54822;BME280;41299;43.546;16.426;2022-11-13T09:21:46;102339.00;;;16.40;73.93
54822;BME280;41299;43.546;16.426;2022-11-13T09:24:12;102341.63;;;16.43;75.44
54822;BME280;41299;43.546;16.426;2022-11-13T09:26:37;102346.00;;;16.46;72.23
54822;BME280;41299;43.546;16.426;2022-11-13T09:29:02;102341.63;;;16.42;70.78
54822;BME280;41299;43.546;16.426;2022-11-13T09:31:28;102340.72;;;16.37;71.54
54822;BME280;41299;43.546;16.426;2022-11-13T09:33:53;102344.22;;;16.39;69.20
54822;BME280;41299;43.546;16.426;2022-11-13T09:36:18;102345.09;;;16.42;75.84
54822;BME280;41299;43.546;16.426;2022-11-13T09:38:43;102339.91;;;16.45;76.35
54822;BME280;41299;43.546;16.426;2022-11-13T09:41:10;102338.16;;;16.44;75.41
54822;BME280;41299;43.546;16.426;2022-11-13T09:43:50;102341.59;;;16.40;75.45
54822;BME280;41299;43.546;16.426;2022-11-13T09:46:18;102339.88;;;16.41;72.67
54822;BME280;41299;43.546;16.426;2022-11-13T09:48:50;102330.34;;;16.43;73.84
54822;BME280;41299;43.546;16.426;2022-11-13T09:51:21;102339.06;;;16.45;73.89
54822;BME280;41299;43.546;16.426;2022-11-13T09:53:47;102337.34;;;16.53;76.93
54822;BME280;41299;43.546;16.426;2022-11-13T10:03:57;102334.72;;;16.52;78.92
54822;BME280;41299;43.546;16.426;2022-11-13T10:06:26;102327.78;;;16.51;79.89
54822;BME280;41299;43.546;16.426;2022-11-13T10:13:56;102323.44;;;16.48;81.34
54822;BME280;41299;43.546;16.426;2022-11-13T10:16:33;102320.81;;;16.45;85.38
54822;BME280;41299;43.546;16.426;2022-11-13T10:19:05;102308.63;;;16.44;78.71
54822;BME280;41299;43.546;16.426;2022-11-13T10:23:58;102301.72;;;16.46;85.64
54822;BME280;41299;43.546;16.426;2022-11-13T10:26:27;102299.09;;;16.40;83.72
54822;BME280;41299;43.546;16.426;2022-11-13T10:29:00;102301.72;;;16.46;88.15
54822;BME280;41299;43.546;16.426;2022-11-13T10:31:39;102298.22;;;16.39;92.16
54822;BME280;41299;43.546;16.426;2022-11-13T10:34:04;102304.25;;;16.33;95.25
54822;BME280;41299;43.546;16.426;2022-11-13T10:39:00;102303.34;;;16.28;100.00
54822;BME280;41299;43.546;16.426;2022-11-13T10:41:27;102297.25;;;16.28;100.00
54822;BME280;41299;43.546;16.426;2022-11-13T10:44:28;102294.66;;;16.28;97.11
54822;BME280;41299;43.546;16.426;2022-11-13T10:46:45;102297.19;;;16.18;93.76
54822;BME280;41299;43.546;16.426;2022-11-13T10:49:17;102305.03;;;16.22;89.81
54822;BME280;41299;43.546;16.426;2022-11-13T10:51:43;102307.59;;;16.18;93.67
54822;BME280;41299;43.546;16.426;2022-11-13T10:54:19;102311.03;;;16.13;95.23
54822;BME280;41299;43.546;16.426;2022-11-13T10:56:54;102315.31;;;16.03;100.00
54822;BME280;41299;43.546;16.426;2022-11-13T10:59:20;102316.13;;;15.94;100.00
54822;BME280;41299;43.546;16.426;2022-11-13T11:01:48;102322.97;;;15.89;100.00
54822;BME280;41299;43.546;16.426;2022-11-13T11:06:48;102334.84;;;15.59;100.00
54822;BME280;41299;43.546;16.426;2022-11-13T11:09:30;102338.13;;;15.42;100.00
54822;BME280;41299;43.546;16.426;2022-11-13T11:20:14;102366.47;;;14.60;100.00
54822;BME280;41299;43.546;16.426;2022-11-13T11:22:38;102379.84;;;14.28;100.00
54822;BME280;41299;43.546;16.426;2022-11-13T11:27:40;102380.00;;;13.88;100.00
54822;BME280;41299;43.546;16.426;2022-11-13T11:30:18;102386.66;;;13.75;100.00
54822;BME280;41299;43.546;16.426;2022-11-13T11:35:16;102377.78;;;13.60;100.00
54822;BME280;41299;43.546;16.426;2022-11-13T11:41:01;102389.53;;;13.46;100.00
54822;BME280;41299;43.546;16.426;2022-11-13T11:43:22;102376.38;;;13.35;100.00
54822;BME280;41299;43.546;16.426;2022-11-13T11:45:50;102373.69;;;13.30;100.00
54822;BME280;41299;43.546;16.426;2022-11-13T11:48:16;102374.59;;;13.32;100.00
54822;BME280;41299;43.546;16.426;2022-11-13T11:51:02;102381.34;;;13.24;100.00
54822;BME280;41299;43.546;16.426;2022-11-13T11:56:06;102367.13;;;13.06;100.00
54822;BME280;41299;43.546;16.426;2022-11-13T12:11:40;102343.81;;;13.05;100.00
54822;BME280;41299;43.546;16.426;2022-11-13T12:20:14;102315.75;;;13.26;100.00
54822;BME280;41299;43.546;16.426;2022-11-13T12:27:42;102310.72;;;13.33;100.00
54822;BME280;41299;43.546;16.426;2022-11-13T12:30:16;102317.81;;;13.45;100.00
54822;BME280;41299;43.546;16.426;2022-11-13T12:35:17;102310.41;;;13.63;100.00
54822;BME280;41299;43.546;16.426;2022-11-13T12:40:19;102309.19;;;13.92;100.00
54822;BME280;41299;43.546;16.426;2022-11-13T12:47:39;102299.16;;;14.14;100.00
54822;BME280;41299;43.546;16.426;2022-11-13T12:50:26;102292.28;;;14.16;100.00
54822;BME280;41299;43.546;16.426;2022-11-13T12:53:00;102289.69;;;14.16;100.00
54822;BME280;41299;43.546;16.426;2022-11-13T12:55:30;102291.38;;;14.15;100.00
54822;BME280;41299;43.546;16.426;2022-11-13T12:58:02;102287.06;;;14.14;100.00
54822;BME280;41299;43.546;16.426;2022-11-13T13:00:29;102288.06;;;14.23;100.00
54822;BME280;41299;43.546;16.426;2022-11-13T13:03:42;102295.75;;;14.18;100.00
54822;BME280;41299;43.546;16.426;2022-11-13T13:06:03;102296.63;;;14.18;100.00
54822;BME280;41299;43.546;16.426;2022-11-13T13:11:13;102296.50;;;14.11;100.00
54822;BME280;41299;43.546;16.426;2022-11-13T13:16:08;102301.63;;;14.06;100.00
54822;BME280;41299;43.546;16.426;2022-11-13T13:18:37;102298.97;;;14.03;100.00
54822;BME280;41299;43.546;16.426;2022-11-13T13:21:05;102289.47;;;14.02;100.00
54822;BME280;41299;43.546;16.426;2022-11-13T13:23:35;102298.03;;;13.98;100.00
54822;BME280;41299;43.546;16.426;2022-11-13T13:26:05;102301.50;;;13.98;100.00
54822;BME280;41299;43.546;16.426;2022-11-13T13:28:30;102303.22;;;13.98;100.00
54822;BME280;41299;43.546;16.426;2022-11-13T13:32:00;102308.41;;;13.96;100.00
54822;BME280;41299;43.546;16.426;2022-11-13T13:36:36;102323.72;;;13.82;100.00
54822;BME280;41299;43.546;16.426;2022-11-13T13:46:31;102339.81;;;13.21;100.00
54822;BME280;41299;43.546;16.426;2022-11-13T13:49:01;102358.72;;;13.17;100.00
54822;BME280;41299;43.546;16.426;2022-11-13T13:51:38;102362.13;;;13.12;100.00
54822;BME280;41299;43.546;16.426;2022-11-13T13:54:05;102351.59;;;13.05;100.00
54822;BME280;41299;43.546;16.426;2022-11-13T13:56:32;102355.78;;;12.99;100.00
54822;BME280;41299;43.546;16.426;2022-11-13T13:58:58;102365.03;;;12.88;100.00
54822;BME280;41299;43.546;16.426;2022-11-13T14:01:31;102367.50;;;12.82;100.00
54822;BME280;41299;43.546;16.426;2022-11-13T14:04:03;102367.38;;;12.76;100.00
54822;BME280;41299;43.546;16.426;2022-11-13T14:06:28;102374.03;;;12.66;100.00
54822;BME280;41299;43.546;16.426;2022-11-13T14:08:54;102370.34;;;12.56;100.00
54822;BME280;41299;43.546;16.426;2022-11-13T14:13:44;102391.78;;;12.50;100.00
54822;BME280;41299;43.546;16.426;2022-11-13T14:16:10;102385.63;;;12.45;100.00